createdAt,value
2023-12-30T00:00:18.121Z,4.32
2023-12-30T00:02:49.378Z,4.29
2023-12-30T00:05:17.758Z,4.27
2023-12-30T00:07:45.673Z,4.24
2023-12-30T00:10:13.537Z,4.22
2023-12-30T00:12:41.186Z,4.19
2023-12-30T00:15:09.259Z,4.18
2023-12-30T00:17:37.111Z,4.17
2023-12-30T00:20:05.443Z,4.18
2023-12-30T00:22:33.143Z,4.18
2023-12-30T00:25:00.882Z,4.16
2023-12-30T00:27:28.443Z,4.16
2023-12-30T00:29:56.014Z,4.17
2023-12-30T00:32:23.608Z,4.17
2023-12-30T00:34:51.235Z,4.19
2023-12-30T00:37:21.516Z,4.18
2023-12-30T00:39:49.549Z,4.19
2023-12-30T00:42:17.286Z,4.17
2023-12-30T00:44:44.850Z,4.16
2023-12-30T00:47:12.805Z,4.18
2023-12-30T00:49:40.579Z,4.19
2023-12-30T00:52:08.140Z,4.17
2023-12-30T00:54:41.111Z,4.17
2023-12-30T00:57:15.288Z,4.15
2023-12-30T00:59:43.582Z,4.14
2023-12-30T01:02:11.140Z,4.16
2023-12-30T01:04:38.785Z,4.15
2023-12-30T01:07:06.593Z,4.13
2023-12-30T01:09:34.775Z,4.13
2023-12-30T01:12:02.407Z,4.12
2023-12-30T01:14:30.462Z,4.12
2023-12-30T01:16:58.065Z,4.14
2023-12-30T01:19:26.209Z,4.17
2023-12-30T01:21:54.159Z,4.15
2023-12-30T01:24:21.805Z,4.13
2023-12-30T01:26:49.794Z,4.11
2023-12-30T01:29:17.365Z,4.09
2023-12-30T01:31:44.978Z,4.08
2023-12-30T01:34:13.092Z,4.07
2023-12-30T01:36:40.764Z,4.06
2023-12-30T01:39:08.309Z,4.05
2023-12-30T01:41:36.333Z,4.04
2023-12-30T01:44:04.006Z,4.04
2023-12-30T01:46:31.709Z,4.02
2023-12-30T01:48:59.709Z,4.02
2023-12-30T01:51:27.410Z,4.01
2023-12-30T01:53:54.994Z,4.00
2023-12-30T01:56:23.046Z,3.99
2023-12-30T01:58:51.487Z,3.99
2023-12-30T02:01:19.175Z,4.00
2023-12-30T02:03:46.814Z,4.00
2023-12-30T02:06:14.565Z,4.01
2023-12-30T02:08:42.179Z,4.01
2023-12-30T02:11:09.774Z,4.02
2023-12-30T02:13:37.518Z,4.04
2023-12-30T02:16:05.463Z,4.02
2023-12-30T02:18:33.977Z,4.00
2023-12-30T02:21:01.602Z,3.97
2023-12-30T02:23:29.174Z,3.95
2023-12-30T02:25:56.795Z,3.92
2023-12-30T02:28:24.432Z,3.88
2023-12-30T02:30:52.059Z,3.85
2023-12-30T02:33:19.977Z,3.82
2023-12-30T02:35:48.404Z,3.80
2023-12-30T02:38:15.992Z,3.77
2023-12-30T02:40:43.519Z,3.76
2023-12-30T02:43:11.150Z,3.76
2023-12-30T02:45:38.695Z,3.74
2023-12-30T02:48:06.801Z,3.73
2023-12-30T02:50:34.734Z,3.70
2023-12-30T02:53:03.009Z,3.69
2023-12-30T02:55:30.760Z,3.69
2023-12-30T02:57:59.651Z,3.70
2023-12-30T03:00:28.182Z,3.68
2023-12-30T03:02:55.749Z,3.63
2023-12-30T03:05:23.426Z,3.60
2023-12-30T03:07:51.010Z,3.59
2023-12-30T03:10:18.700Z,3.57
2023-12-30T03:12:46.376Z,3.56
2023-12-30T03:15:14.433Z,3.55
2023-12-30T03:17:42.712Z,3.54
2023-12-30T03:20:11.703Z,3.55
2023-12-30T03:22:39.441Z,3.54
2023-12-30T03:25:08.085Z,3.53
2023-12-30T03:27:37.528Z,3.53
2023-12-30T03:30:05.833Z,3.53
2023-12-30T03:32:33.847Z,3.48
2023-12-30T03:35:01.648Z,3.41
2023-12-30T03:37:29.302Z,3.38
2023-12-30T03:39:56.886Z,3.37
2023-12-30T03:42:24.592Z,3.34
2023-12-30T03:44:52.257Z,3.34
2023-12-30T03:47:20.210Z,3.32
2023-12-30T03:49:47.990Z,3.32
2023-12-30T03:52:15.628Z,3.31
2023-12-30T03:54:44.748Z,3.29
2023-12-30T03:57:14.453Z,3.28
2023-12-30T03:59:42.044Z,3.29
2023-12-30T04:02:09.627Z,3.28
2023-12-30T04:04:37.686Z,3.29
2023-12-30T04:07:05.433Z,3.28
2023-12-30T04:09:33.005Z,3.30
2023-12-30T04:12:00.607Z,3.31
2023-12-30T04:14:28.217Z,3.31
2023-12-30T04:16:55.955Z,3.31
2023-12-30T04:19:25.450Z,3.29
2023-12-30T04:21:53.112Z,3.25
2023-12-30T04:24:20.691Z,3.26
2023-12-30T04:26:48.319Z,3.26
2023-12-30T04:29:15.840Z,3.25
2023-12-30T04:31:43.486Z,3.25
2023-12-30T04:34:11.282Z,3.27
2023-12-30T04:36:39.084Z,3.28
2023-12-30T04:39:07.250Z,3.28
2023-12-30T04:41:34.905Z,3.30
2023-12-30T04:44:02.658Z,3.30
2023-12-30T04:46:30.202Z,3.31
2023-12-30T04:48:57.910Z,3.31
2023-12-30T04:51:25.510Z,3.31
2023-12-30T04:53:53.061Z,3.28
2023-12-30T04:56:20.959Z,3.24
2023-12-30T04:58:48.546Z,3.21
2023-12-30T05:01:16.491Z,3.19
2023-12-30T05:03:44.329Z,3.19
2023-12-30T05:06:22.773Z,3.20
2023-12-30T05:08:54.311Z,3.21
2023-12-30T05:11:24.919Z,3.23
2023-12-30T05:13:52.625Z,3.24
2023-12-30T05:16:20.259Z,3.27
2023-12-30T05:18:47.859Z,3.29
2023-12-30T05:21:16.104Z,3.29
2023-12-30T05:23:43.983Z,3.27
2023-12-30T05:26:13.583Z,3.25
2023-12-30T05:28:41.264Z,3.25
2023-12-30T05:31:09.108Z,3.27
2023-12-30T05:33:36.834Z,3.25
2023-12-30T05:36:04.590Z,3.26
2023-12-30T05:38:32.168Z,3.25
2023-12-30T05:40:59.861Z,3.23
2023-12-30T05:43:27.693Z,3.24
2023-12-30T05:45:55.462Z,3.25
2023-12-30T05:48:23.126Z,3.25
2023-12-30T05:50:50.679Z,3.27
2023-12-30T05:53:18.267Z,3.30
2023-12-30T05:55:45.786Z,3.33
2023-12-30T05:58:13.497Z,3.35
2023-12-30T06:00:41.239Z,3.39
2023-12-30T06:03:09.391Z,3.41
2023-12-30T06:05:37.237Z,3.43
2023-12-30T06:08:05.533Z,3.44
2023-12-30T06:10:33.246Z,3.46
2023-12-30T06:13:01.004Z,3.47
2023-12-30T06:15:28.777Z,3.43
2023-12-30T06:17:56.444Z,3.40
2023-12-30T06:20:24.606Z,3.34
2023-12-30T06:22:52.273Z,3.28
2023-12-30T06:25:19.907Z,3.22
2023-12-30T06:27:47.494Z,3.18
2023-12-30T06:30:15.485Z,3.15
2023-12-30T06:32:43.221Z,3.16
2023-12-30T06:35:10.830Z,3.18
2023-12-30T06:37:38.652Z,3.25
2023-12-30T06:40:07.116Z,3.32
2023-12-30T06:42:34.772Z,3.41
2023-12-30T06:45:02.331Z,3.52
2023-12-30T06:47:29.879Z,3.65
2023-12-30T06:49:57.700Z,3.79
2023-12-30T06:52:25.387Z,4.00
2023-12-30T06:55:02.732Z,4.37
2023-12-30T06:57:38.177Z,5.00
2023-12-30T07:00:07.161Z,5.68
2023-12-30T07:02:35.426Z,6.30
2023-12-30T07:05:03.097Z,6.73
2023-12-30T07:07:30.692Z,7.14
2023-12-30T07:09:58.335Z,7.61
2023-12-30T07:12:25.988Z,8.08
2023-12-30T07:14:53.532Z,8.55
2023-12-30T07:17:21.209Z,9.00
2023-12-30T07:19:48.933Z,9.43
2023-12-30T07:22:20.392Z,9.84
2023-12-30T07:24:50.958Z,10.19
2023-12-30T07:27:18.619Z,10.32
2023-12-30T07:29:46.172Z,10.56
2023-12-30T07:32:13.812Z,10.85
2023-12-30T07:34:41.548Z,11.03
2023-12-30T07:37:09.173Z,11.20
2023-12-30T07:39:36.817Z,11.27
2023-12-30T07:42:05.353Z,11.18
2023-12-30T07:44:38.794Z,11.02
2023-12-30T07:47:08.320Z,10.86
2023-12-30T07:49:36.822Z,10.80
2023-12-30T07:52:05.025Z,10.71
2023-12-30T07:54:32.620Z,10.57
2023-12-30T07:57:00.171Z,10.48
2023-12-30T07:59:27.801Z,10.49
2023-12-30T08:01:57.770Z,10.60
2023-12-30T08:04:25.944Z,10.71
2023-12-30T08:06:54.452Z,10.81
2023-12-30T08:09:24.237Z,10.91
2023-12-30T08:11:59.371Z,10.95
2023-12-30T08:14:30.657Z,10.98
2023-12-30T08:17:00.212Z,10.96
2023-12-30T08:19:28.060Z,10.89
2023-12-30T08:21:55.841Z,10.82
2023-12-30T08:24:23.432Z,10.75
2023-12-30T08:26:50.987Z,10.65
2023-12-30T08:29:18.585Z,10.59
2023-12-30T08:31:49.318Z,10.44
2023-12-30T08:34:17.085Z,10.26
2023-12-30T08:36:45.513Z,10.14
2023-12-30T08:39:13.862Z,10.05
2023-12-30T08:41:42.319Z,10.02
2023-12-30T08:44:10.227Z,10.03
2023-12-30T08:46:38.001Z,10.12
2023-12-30T08:49:08.534Z,10.19
2023-12-30T08:51:38.265Z,10.33
2023-12-30T08:54:05.837Z,10.49
2023-12-30T08:56:35.001Z,10.62
2023-12-30T08:59:03.171Z,10.67
2023-12-30T09:01:31.823Z,10.65
2023-12-30T09:04:01.433Z,10.66
2023-12-30T09:06:29.413Z,10.73
2023-12-30T09:08:57.723Z,10.70
2023-12-30T09:11:25.426Z,10.65
2023-12-30T09:13:53.535Z,10.58
2023-12-30T09:16:21.338Z,10.50
2023-12-30T09:18:49.181Z,10.32
2023-12-30T09:21:17.053Z,10.12
2023-12-30T09:23:44.610Z,9.94
2023-12-30T09:26:14.036Z,9.85
2023-12-30T09:28:41.865Z,9.76
2023-12-30T09:31:09.841Z,9.67
2023-12-30T09:33:37.583Z,9.59
2023-12-30T09:36:06.143Z,9.53
2023-12-30T09:38:33.685Z,9.52
2023-12-30T09:41:01.263Z,9.55
2023-12-30T09:43:29.150Z,9.55
2023-12-30T09:45:59.200Z,9.47
2023-12-30T09:48:28.887Z,9.42
2023-12-30T09:50:57.600Z,9.40
2023-12-30T09:53:26.241Z,9.36
2023-12-30T09:55:54.479Z,9.38
2023-12-30T09:58:22.778Z,9.44
2023-12-30T10:00:50.494Z,9.47
2023-12-30T10:03:19.780Z,9.44
2023-12-30T10:05:48.589Z,9.41
2023-12-30T10:08:16.666Z,9.40
2023-12-30T10:10:46.484Z,9.37
2023-12-30T10:13:15.447Z,9.29
2023-12-30T10:15:43.604Z,9.21
2023-12-30T10:18:11.833Z,9.16
2023-12-30T10:20:43.474Z,9.12
2023-12-30T10:23:11.183Z,9.13
2023-12-30T10:25:39.257Z,9.22
2023-12-30T10:28:07.203Z,9.27
2023-12-30T10:30:34.806Z,9.32
2023-12-30T10:33:13.161Z,9.36
2023-12-30T10:35:41.883Z,9.36
2023-12-30T10:38:10.143Z,9.36
2023-12-30T10:40:39.580Z,9.39
2023-12-30T10:43:07.961Z,9.42
2023-12-30T10:45:35.815Z,9.52
2023-12-30T10:48:03.666Z,9.60
2023-12-30T10:50:32.037Z,9.66
2023-12-30T10:53:24.609Z,9.73
2023-12-30T10:55:54.431Z,9.78
2023-12-30T10:58:24.086Z,9.86
2023-12-30T11:00:59.040Z,9.94
2023-12-30T11:03:26.928Z,10.03
2023-12-30T11:06:00.787Z,10.10
2023-12-30T11:08:29.110Z,10.14
2023-12-30T11:10:59.535Z,10.19
2023-12-30T11:13:27.142Z,10.19
2023-12-30T11:15:56.082Z,10.22
2023-12-30T11:18:45.757Z,10.33
2023-12-30T11:21:13.643Z,10.50
2023-12-30T11:23:41.239Z,10.61
2023-12-30T11:26:08.861Z,10.61
2023-12-30T11:28:38.657Z,10.60
2023-12-30T11:31:06.374Z,10.51
2023-12-30T11:33:34.094Z,10.38
2023-12-30T11:36:01.726Z,10.28
2023-12-30T11:38:32.577Z,10.23
2023-12-30T11:41:02.561Z,10.20
2023-12-30T11:43:30.410Z,10.23
2023-12-30T11:45:58.157Z,10.21
2023-12-30T11:48:25.888Z,10.11
2023-12-30T11:50:55.427Z,10.01
2023-12-30T11:53:23.149Z,9.92
2023-12-30T11:55:50.817Z,9.83
2023-12-30T11:58:18.535Z,9.76
2023-12-30T12:00:46.148Z,9.76
2023-12-30T12:03:13.740Z,9.78
2023-12-30T12:05:41.347Z,9.84
2023-12-30T12:08:12.620Z,9.90
2023-12-30T12:10:40.409Z,9.95
2023-12-30T12:13:10.866Z,10.01
2023-12-30T12:15:40.395Z,10.05
2023-12-30T12:18:09.274Z,10.03
2023-12-30T12:20:42.106Z,9.97
2023-12-30T12:23:10.196Z,9.84
2023-12-30T12:25:37.850Z,9.72
2023-12-30T12:28:12.186Z,9.67
2023-12-30T12:30:40.499Z,9.66
2023-12-30T12:33:08.934Z,9.66
2023-12-30T12:35:36.705Z,9.65
2023-12-30T12:38:04.627Z,9.66
2023-12-30T12:40:33.546Z,9.62
2023-12-30T12:43:01.349Z,9.60
2023-12-30T12:45:30.965Z,9.57
2023-12-30T12:47:58.997Z,9.55
2023-12-30T12:50:26.956Z,9.50
2023-12-30T12:52:54.508Z,9.45
2023-12-30T12:55:22.101Z,9.39
2023-12-30T12:57:49.721Z,9.33
2023-12-30T13:00:19.470Z,9.23
2023-12-30T13:02:47.105Z,9.12
2023-12-30T13:05:18.792Z,9.01
2023-12-30T13:07:47.784Z,8.88
2023-12-30T13:10:33.711Z,8.75
2023-12-30T13:13:02.230Z,8.63
2023-12-30T13:15:30.833Z,8.51
2023-12-30T13:18:00.901Z,8.41
2023-12-30T13:20:28.767Z,8.30
2023-12-30T13:22:59.239Z,8.18
2023-12-30T13:25:31.252Z,8.06
2023-12-30T13:27:59.381Z,7.93
2023-12-30T13:30:27.219Z,7.82
2023-12-30T13:32:59.033Z,7.70
2023-12-30T13:35:30.625Z,7.60
2023-12-30T13:37:58.164Z,7.48
2023-12-30T13:40:26.430Z,7.36
2023-12-30T13:42:55.988Z,7.25
2023-12-30T13:45:24.036Z,7.16
2023-12-30T13:47:51.729Z,7.08
2023-12-30T13:50:21.546Z,6.99
2023-12-30T13:52:51.870Z,6.89
2023-12-30T13:55:20.298Z,6.81
2023-12-30T13:57:53.967Z,6.74
2023-12-30T14:00:22.819Z,6.62
2023-12-30T14:02:54.152Z,6.50
2023-12-30T14:05:31.477Z,6.40
2023-12-30T14:08:16.053Z,6.28
2023-12-30T14:10:50.396Z,6.17
2023-12-30T14:13:20.048Z,6.04
2023-12-30T14:15:51.155Z,5.93
2023-12-30T14:18:18.926Z,5.82
2023-12-30T14:20:47.300Z,5.72
2023-12-30T14:23:15.034Z,5.64
2023-12-30T14:25:42.874Z,5.57
2023-12-30T14:28:11.357Z,5.51
2023-12-30T14:30:40.331Z,5.47
2023-12-30T14:33:08.988Z,5.40
2023-12-30T14:35:37.356Z,5.37
2023-12-30T14:38:06.093Z,5.35
2023-12-30T14:40:33.669Z,5.34
2023-12-30T14:43:01.536Z,5.32
2023-12-30T14:45:29.964Z,5.31
2023-12-30T14:47:58.010Z,5.32
2023-12-30T14:50:25.568Z,5.33
2023-12-30T14:52:53.301Z,5.35
2023-12-30T14:55:20.844Z,5.38
2023-12-30T14:57:50.256Z,5.42
2023-12-30T15:00:18.797Z,5.43
2023-12-30T15:02:46.590Z,5.48
2023-12-30T15:05:17.416Z,5.47
2023-12-30T15:07:45.833Z,5.40
2023-12-30T15:10:15.759Z,5.36
2023-12-30T15:12:45.804Z,5.33
2023-12-30T15:15:13.991Z,5.31
2023-12-30T15:17:41.629Z,5.32
2023-12-30T15:20:09.808Z,5.38
2023-12-30T15:22:39.066Z,5.46
2023-12-30T15:25:07.295Z,5.60
2023-12-30T15:27:34.893Z,5.73
2023-12-30T15:30:02.438Z,5.88
2023-12-30T15:32:30.556Z,6.03
2023-12-30T15:34:59.543Z,6.16
2023-12-30T15:37:27.468Z,6.28
2023-12-30T15:39:55.107Z,6.38
2023-12-30T15:42:22.694Z,6.47
2023-12-30T15:44:50.250Z,6.55
2023-12-30T15:47:17.948Z,6.61
2023-12-30T15:49:45.621Z,6.68
2023-12-30T15:52:13.601Z,6.72
2023-12-30T15:54:41.159Z,6.76
2023-12-30T15:57:08.802Z,6.79
2023-12-30T15:59:36.397Z,6.81
2023-12-30T16:02:04.238Z,6.84
2023-12-30T16:04:31.921Z,6.86
2023-12-30T16:06:59.596Z,6.88
2023-12-30T16:09:27.169Z,6.89
2023-12-30T16:11:54.967Z,6.90
2023-12-30T16:14:22.521Z,6.87
2023-12-30T16:16:50.104Z,6.84
2023-12-30T16:19:19.108Z,6.79
2023-12-30T16:21:49.035Z,6.76
2023-12-30T16:24:18.503Z,6.70
2023-12-30T16:26:46.237Z,6.67
2023-12-30T16:29:13.951Z,6.63
2023-12-30T16:31:41.511Z,6.59
2023-12-30T16:34:09.343Z,6.54
2023-12-30T16:36:37.144Z,6.47
2023-12-30T16:39:04.997Z,6.41
2023-12-30T16:41:32.616Z,6.36
2023-12-30T16:44:00.719Z,6.32
2023-12-30T16:46:28.264Z,6.29
2023-12-30T16:48:55.901Z,6.25
2023-12-30T16:51:23.504Z,6.25
2023-12-30T16:53:51.190Z,6.22
2023-12-30T16:56:19.640Z,6.20
2023-12-30T16:58:47.483Z,6.17
2023-12-30T17:01:15.498Z,6.17
2023-12-30T17:03:43.902Z,6.15
2023-12-30T17:06:12.299Z,6.14
2023-12-30T17:08:39.816Z,6.12
2023-12-30T17:11:07.425Z,6.11
2023-12-30T17:13:39.603Z,6.09
2023-12-30T17:16:14.078Z,6.07
2023-12-30T17:18:41.788Z,6.05
2023-12-30T17:21:09.411Z,6.01
2023-12-30T17:23:37.129Z,6.00
2023-12-30T17:26:05.199Z,6.02
2023-12-30T17:28:32.928Z,6.00
2023-12-30T17:31:01.350Z,5.96
2023-12-30T17:33:29.092Z,5.95
2023-12-30T17:35:56.637Z,5.92
2023-12-30T17:38:24.461Z,5.89
2023-12-30T17:40:52.134Z,5.86
2023-12-30T17:43:19.850Z,5.84
2023-12-30T17:45:47.560Z,5.81
2023-12-30T17:48:16.030Z,5.77
2023-12-30T17:50:46.474Z,5.74
2023-12-30T17:53:14.323Z,5.70
2023-12-30T17:55:42.268Z,5.66
2023-12-30T17:58:10.075Z,5.63
2023-12-30T18:00:37.827Z,5.57
2023-12-30T18:03:07.684Z,5.54
2023-12-30T18:05:35.473Z,5.48
2023-12-30T18:08:03.177Z,5.44
2023-12-30T18:10:30.938Z,5.40
2023-12-30T18:12:58.490Z,5.34
2023-12-30T18:15:26.839Z,5.29
2023-12-30T18:17:54.538Z,5.24
2023-12-30T18:20:25.787Z,5.19
2023-12-30T18:22:53.567Z,5.15
2023-12-30T18:25:21.183Z,5.12
2023-12-30T18:27:48.730Z,5.09
2023-12-30T18:30:16.630Z,5.05
2023-12-30T18:32:44.406Z,5.04
2023-12-30T18:35:12.559Z,5.03
2023-12-30T18:37:41.476Z,5.03
2023-12-30T18:40:12.173Z,5.03
2023-12-30T18:42:40.358Z,5.03
2023-12-30T18:45:08.742Z,5.04
2023-12-30T18:47:36.469Z,5.02
2023-12-30T18:50:05.154Z,5.01
2023-12-30T18:52:33.215Z,4.97
2023-12-30T18:55:01.078Z,4.94
2023-12-30T18:57:28.876Z,4.91
2023-12-30T18:59:57.331Z,4.89
2023-12-30T19:02:24.945Z,4.86
2023-12-30T19:04:52.638Z,4.84
2023-12-30T19:07:20.480Z,4.79
2023-12-30T19:09:48.532Z,4.76
2023-12-30T19:12:16.268Z,4.71
2023-12-30T19:14:43.994Z,4.67
2023-12-30T19:17:11.844Z,4.63
2023-12-30T19:19:40.041Z,4.60
2023-12-30T19:22:08.749Z,4.57
2023-12-30T19:24:37.979Z,4.52
2023-12-30T19:27:06.026Z,4.46
2023-12-30T19:29:33.660Z,4.41
2023-12-30T19:32:01.310Z,4.34
2023-12-30T19:34:29.278Z,4.27
2023-12-30T19:36:57.360Z,4.19
2023-12-30T19:39:25.152Z,4.12
2023-12-30T19:41:52.729Z,4.06
2023-12-30T19:44:20.738Z,3.99
2023-12-30T19:46:48.805Z,3.94
2023-12-30T19:49:17.054Z,3.87
2023-12-30T19:51:45.223Z,3.82
2023-12-30T19:54:13.562Z,3.77
2023-12-30T19:56:41.661Z,3.73
2023-12-30T19:59:10.305Z,3.69
2023-12-30T20:01:38.055Z,3.65
2023-12-30T20:04:05.854Z,3.61
2023-12-30T20:06:34.649Z,3.59
2023-12-30T20:09:02.246Z,3.58
2023-12-30T20:11:29.903Z,3.54
2023-12-30T20:13:57.583Z,3.51
2023-12-30T20:16:25.319Z,3.47
2023-12-30T20:18:53.146Z,3.49
2023-12-30T20:21:21.807Z,3.49
2023-12-30T20:23:49.586Z,3.51
2023-12-30T20:26:17.272Z,3.51
2023-12-30T20:28:45.012Z,3.50
2023-12-30T20:31:12.849Z,3.48
2023-12-30T20:33:40.587Z,3.46
2023-12-30T20:36:09.373Z,3.43
2023-12-30T20:38:40.338Z,3.40
2023-12-30T20:41:07.993Z,3.37
2023-12-30T20:43:35.690Z,3.34
2023-12-30T20:46:08.830Z,3.34
2023-12-30T20:48:39.775Z,3.33
2023-12-30T20:51:09.042Z,3.32
2023-12-30T20:53:36.565Z,3.31
2023-12-30T20:56:04.498Z,3.30
2023-12-30T20:58:32.104Z,3.30
2023-12-30T21:01:00.029Z,3.30
2023-12-30T21:03:30.205Z,3.28
2023-12-30T21:05:58.173Z,3.28
2023-12-30T21:08:25.733Z,3.27
2023-12-30T21:10:53.342Z,3.29
2023-12-30T21:13:21.197Z,3.29
2023-12-30T21:15:49.513Z,3.30
2023-12-30T21:18:17.158Z,3.30
2023-12-30T21:20:44.806Z,3.30
2023-12-30T21:23:12.342Z,3.29
2023-12-30T21:25:40.052Z,3.27
2023-12-30T21:28:08.135Z,3.25
2023-12-30T21:30:35.811Z,3.22
2023-12-30T21:33:03.803Z,3.20
2023-12-30T21:35:31.464Z,3.16
2023-12-30T21:37:59.059Z,3.14
2023-12-30T21:40:28.408Z,3.12
2023-12-30T21:42:56.007Z,3.12
2023-12-30T21:45:23.546Z,3.13
2023-12-30T21:47:51.508Z,3.14
2023-12-30T21:50:19.213Z,3.15
2023-12-30T21:52:47.487Z,3.15
2023-12-30T21:55:15.091Z,3.15
2023-12-30T21:57:42.691Z,3.14
2023-12-30T22:00:12.231Z,3.14
2023-12-30T22:02:40.327Z,3.13
2023-12-30T22:05:08.919Z,3.11
2023-12-30T22:07:36.525Z,3.08
2023-12-30T22:10:04.489Z,3.05
2023-12-30T22:12:33.617Z,2.98
2023-12-30T22:15:01.226Z,2.93
2023-12-30T22:17:29.106Z,2.88
2023-12-30T22:19:57.645Z,2.84
2023-12-30T22:22:25.253Z,2.81
2023-12-30T22:24:52.963Z,2.77
2023-12-30T22:27:23.550Z,2.74
2023-12-30T22:29:51.067Z,2.71
2023-12-30T22:32:18.709Z,2.68
2023-12-30T22:34:46.342Z,2.65
2023-12-30T22:37:14.016Z,2.65
2023-12-30T22:39:41.591Z,2.64
2023-12-30T22:42:09.122Z,2.63
2023-12-30T22:44:38.746Z,2.63
2023-12-30T22:47:06.983Z,2.64
2023-12-30T22:49:34.600Z,2.65
2023-12-30T22:52:02.210Z,2.67
2023-12-30T22:54:30.061Z,2.71
2023-12-30T22:56:57.649Z,2.72
2023-12-30T22:59:25.190Z,2.74
2023-12-30T23:01:52.769Z,2.78
2023-12-30T23:04:20.356Z,2.78
2023-12-30T23:06:49.036Z,2.78
2023-12-30T23:09:16.922Z,2.79
2023-12-30T23:11:44.528Z,2.79
2023-12-30T23:14:12.061Z,2.81
2023-12-30T23:16:39.737Z,2.83
2023-12-30T23:19:08.113Z,2.85
2023-12-30T23:21:35.883Z,2.87
2023-12-30T23:24:05.255Z,2.90
2023-12-30T23:26:32.790Z,2.89
2023-12-30T23:29:00.339Z,2.88
2023-12-30T23:31:27.956Z,2.90
2023-12-30T23:33:55.561Z,2.90
2023-12-30T23:36:23.299Z,2.91
2023-12-30T23:38:50.937Z,2.92
2023-12-30T23:41:18.526Z,2.95
2023-12-30T23:43:46.178Z,2.95
2023-12-30T23:46:14.014Z,2.94
2023-12-30T23:48:41.675Z,2.93
2023-12-30T23:51:09.222Z,2.89
2023-12-30T23:53:37.411Z,2.89
2023-12-30T23:56:05.405Z,2.90
2023-12-30T23:58:33.121Z,2.90
